Seth D. — WDF4107 — position and weather

sailwx.info

Track history (hours):
 
Tides and Currents Weather Stations Pressure Air Temp Water Temp Dewpoint Dewpoint Depression Visibility Wind Speed Wind Dir Waves Ship Positions

Seth D.

Owner: C & J Marine Services, Inc., Berwick, LA. More information available from US FCC via Universal Licensing System and Coast Guard Vessel Documentation Center.

Last reported at 2018-Feb-19 07:50 UTC. Time now 2018-Feb-20 17:09 UTC.
Position N 29°33' W 090°24'.

Length 21 m; draft 3 m.

Type: Tug. MMSI: 367448060.

Date/timePositionNaut miles runAvg speedWind from/ knotsBaromVisibWave heightAir tempDewpointWater temp
2018-Feb-19 07:50N 29°33' W 090°24'1 3.4
2018-Feb-19 07:28N 29°33' W 090°26'2 3.4
2018-Feb-19 06:56N 29°33' W 090°28'1 3.4
2018-Feb-19 06:30N 29°34' W 090°30'2 3.4
2018-Feb-19 06:00N 29°34' W 090°32'2 3.4
2018-Feb-19 05:30N 29°34' W 090°33'2 3.4
2018-Feb-19 05:00N 29°35' W 090°35'2 3.2
2018-Feb-19 04:30N 29°35' W 090°37'2 3.3
2018-Feb-19 04:00N 29°35' W 090°39'2 3.1
2018-Feb-19 03:30N 29°36' W 090°40'2 3.2
2018-Feb-19 03:00N 29°37' W 090°42'1 2.7
2018-Feb-19 02:30N 29°36' W 090°43'2 3.1
2018-Feb-19 02:00N 29°34' W 090°43'2 3.2
2018-Feb-19 01:30N 29°34' W 090°45'1 1.6
2018-Feb-19 01:00N 29°33' W 090°45'1 1.8
2018-Feb-19 00:30N 29°32' W 090°46'2 3.6
2018-Feb-19 00:00N 29°32' W 090°48'2 3.8
2018-Feb-18 23:30N 29°32' W 090°50'  
2018-Feb-16 15:28N 29°34' W 090°56'4 4.7
2018-Feb-16 14:36N 29°32' W 090°52'0 4.9
2018-Feb-16 14:30N 29°32' W 090°51'2 5.0
2018-Feb-16 14:00N 29°32' W 090°48'2 4.6
2018-Feb-16 13:30N 29°32' W 090°46'2 4.0
2018-Feb-16 13:00N 29°34' W 090°44'2 3.6
2018-Feb-16 12:30N 29°35' W 090°43'2 3.5
2018-Feb-16 12:01N 29°37' W 090°42'2 4.6
2018-Feb-16 11:30N 29°36' W 090°39'2 4.7
2018-Feb-16 11:00N 29°35' W 090°37'1 1.8
2018-Feb-16 10:29N 29°35' W 090°36'0 0.0
2018-Feb-16 10:00N 29°35' W 090°36'0 0.3
2018-Feb-16 09:30N 29°35' W 090°36'2 4.1
2018-Feb-16 09:00N 29°34' W 090°33'  
2018-Feb-11 03:00N 29°50' W 091°59'2 3.8
2018-Feb-11 02:30N 29°50' W 092°01'2 3.9
2018-Feb-11 02:00N 29°49' W 092°03'2 3.8
2018-Feb-11 01:30N 29°48' W 092°05'2 3.9
2018-Feb-11 01:00N 29°47' W 092°07'2 3.7
2018-Feb-11 00:30N 29°47' W 092°09'2 3.2
2018-Feb-11 00:00N 29°47' W 092°11'1 3.0
2018-Feb-10 23:30N 29°47' W 092°12'1 1.7
2018-Feb-10 23:00N 29°48' W 092°13'1 1.6
2018-Feb-10 22:30N 29°48' W 092°14'0 0.5
2018-Feb-10 22:00N 29°48' W 092°14'1 1.6
2018-Feb-10 21:28N 29°48' W 092°15'1 2.6
2018-Feb-10 21:00N 29°49' W 092°17'1 2.7
2018-Feb-10 20:30N 29°50' W 092°18'2 3.3
2018-Feb-10 20:00N 29°50' W 092°19'2 3.5
2018-Feb-10 19:30N 29°51' W 092°21'74 2.2
2018-Feb-09 10:30N 29°60' W 093°46'  
Track history (hours):
 
Tides and Currents Weather Stations Pressure Air Temp Water Temp Dewpoint Dewpoint Depression Visibility Wind Speed Wind Dir Waves Ship Positions

Seth D.

Owner: C & J Marine Services, Inc., Berwick, LA. More information available from US FCC via Universal Licensing System and Coast Guard Vessel Documentation Center.

Last reported at 2018-Feb-19 07:50 UTC. Time now 2018-Feb-20 17:09 UTC.
Position N 29°33' W 090°24'.

Length 21 m; draft 3 m.

Type: Tug. MMSI: 367448060.

Date/timePositionNaut miles runAvg speedWind from/ knotsBaromVisibWave heightAir tempDewpointWater temp
2018-Feb-19 07:50N 29°33' W 090°24'1 3.4
2018-Feb-19 07:28N 29°33' W 090°26'2 3.4
2018-Feb-19 06:56N 29°33' W 090°28'1 3.4
2018-Feb-19 06:30N 29°34' W 090°30'2 3.4
2018-Feb-19 06:00N 29°34' W 090°32'2 3.4
2018-Feb-19 05:30N 29°34' W 090°33'2 3.4
2018-Feb-19 05:00N 29°35' W 090°35'2 3.2
2018-Feb-19 04:30N 29°35' W 090°37'2 3.3
2018-Feb-19 04:00N 29°35' W 090°39'2 3.1
2018-Feb-19 03:30N 29°36' W 090°40'2 3.2
2018-Feb-19 03:00N 29°37' W 090°42'1 2.7
2018-Feb-19 02:30N 29°36' W 090°43'2 3.1
2018-Feb-19 02:00N 29°34' W 090°43'2 3.2
2018-Feb-19 01:30N 29°34' W 090°45'1 1.6
2018-Feb-19 01:00N 29°33' W 090°45'1 1.8
2018-Feb-19 00:30N 29°32' W 090°46'2 3.6
2018-Feb-19 00:00N 29°32' W 090°48'2 3.8
2018-Feb-18 23:30N 29°32' W 090°50'  
2018-Feb-16 15:28N 29°34' W 090°56'4 4.7
2018-Feb-16 14:36N 29°32' W 090°52'0 4.9
2018-Feb-16 14:30N 29°32' W 090°51'2 5.0
2018-Feb-16 14:00N 29°32' W 090°48'2 4.6
2018-Feb-16 13:30N 29°32' W 090°46'2 4.0
2018-Feb-16 13:00N 29°34' W 090°44'2 3.6
2018-Feb-16 12:30N 29°35' W 090°43'2 3.5
2018-Feb-16 12:01N 29°37' W 090°42'2 4.6
2018-Feb-16 11:30N 29°36' W 090°39'2 4.7
2018-Feb-16 11:00N 29°35' W 090°37'1 1.8
2018-Feb-16 10:29N 29°35' W 090°36'0 0.0
2018-Feb-16 10:00N 29°35' W 090°36'0 0.3
2018-Feb-16 09:30N 29°35' W 090°36'2 4.1
2018-Feb-16 09:00N 29°34' W 090°33'  
2018-Feb-11 03:00N 29°50' W 091°59'2 3.8
2018-Feb-11 02:30N 29°50' W 092°01'2 3.9
2018-Feb-11 02:00N 29°49' W 092°03'2 3.8
2018-Feb-11 01:30N 29°48' W 092°05'2 3.9
2018-Feb-11 01:00N 29°47' W 092°07'2 3.7
2018-Feb-11 00:30N 29°47' W 092°09'2 3.2
2018-Feb-11 00:00N 29°47' W 092°11'1 3.0
2018-Feb-10 23:30N 29°47' W 092°12'1 1.7
2018-Feb-10 23:00N 29°48' W 092°13'1 1.6
2018-Feb-10 22:30N 29°48' W 092°14'0 0.5
2018-Feb-10 22:00N 29°48' W 092°14'1 1.6
2018-Feb-10 21:28N 29°48' W 092°15'1 2.6
2018-Feb-10 21:00N 29°49' W 092°17'1 2.7
2018-Feb-10 20:30N 29°50' W 092°18'2 3.3
2018-Feb-10 20:00N 29°50' W 092°19'2 3.5
2018-Feb-10 19:30N 29°51' W 092°21'74 2.2
2018-Feb-09 10:30N 29°60' W 093°46'  

Dump ship's entire track history